sensor_id;sensor_type;location;lat;lon;timestamp;P1;durP1;ratioP1;P2;durP2;ratioP2
14381;SDS011;7275;50.328;8.720;2022-12-18T00:01:18;6.63;;;4.70;;
14381;SDS011;7275;50.328;8.720;2022-12-18T00:03:48;6.23;;;4.60;;
14381;SDS011;7275;50.328;8.720;2022-12-18T00:06:17;6.17;;;4.67;;
14381;SDS011;7275;50.328;8.720;2022-12-18T00:08:45;6.60;;;4.63;;
14381;SDS011;7275;50.328;8.720;2022-12-18T00:11:13;6.37;;;4.80;;
14381;SDS011;7275;50.328;8.720;2022-12-18T00:13:43;5.83;;;4.30;;
14381;SDS011;7275;50.328;8.720;2022-12-18T00:16:12;6.03;;;4.33;;
14381;SDS011;7275;50.328;8.720;2022-12-18T00:18:40;5.80;;;4.27;;
14381;SDS011;7275;50.328;8.720;2022-12-18T00:21:10;6.63;;;4.43;;
14381;SDS011;7275;50.328;8.720;2022-12-18T00:23:40;7.43;;;4.97;;
14381;SDS011;7275;50.328;8.720;2022-12-18T00:26:10;8.03;;;5.27;;
14381;SDS011;7275;50.328;8.720;2022-12-18T00:28:39;7.27;;;4.90;;
14381;SDS011;7275;50.328;8.720;2022-12-18T00:31:07;7.23;;;5.03;;
14381;SDS011;7275;50.328;8.720;2022-12-18T00:33:38;5.60;;;4.43;;
14381;SDS011;7275;50.328;8.720;2022-12-18T00:36:07;6.33;;;4.77;;
14381;SDS011;7275;50.328;8.720;2022-12-18T00:38:38;6.20;;;4.60;;
14381;SDS011;7275;50.328;8.720;2022-12-18T00:41:06;5.77;;;4.50;;
14381;SDS011;7275;50.328;8.720;2022-12-18T00:43:34;6.07;;;4.53;;
14381;SDS011;7275;50.328;8.720;2022-12-18T00:46:01;6.30;;;4.57;;
14381;SDS011;7275;50.328;8.720;2022-12-18T00:48:30;7.50;;;4.97;;
14381;SDS011;7275;50.328;8.720;2022-12-18T00:50:57;5.87;;;4.53;;
14381;SDS011;7275;50.328;8.720;2022-12-18T00:53:25;6.40;;;4.20;;
14381;SDS011;7275;50.328;8.720;2022-12-18T00:55:54;6.33;;;3.90;;
14381;SDS011;7275;50.328;8.720;2022-12-18T00:58:21;6.17;;;4.20;;
14381;SDS011;7275;50.328;8.720;2022-12-18T01:00:49;6.80;;;4.27;;
14381;SDS011;7275;50.328;8.720;2022-12-18T01:03:16;7.30;;;4.53;;
14381;SDS011;7275;50.328;8.720;2022-12-18T01:05:44;6.03;;;4.03;;
14381;SDS011;7275;50.328;8.720;2022-12-18T01:08:11;5.87;;;4.20;;
14381;SDS011;7275;50.328;8.720;2022-12-18T01:10:39;4.73;;;3.40;;
14381;SDS011;7275;50.328;8.720;2022-12-18T01:13:08;5.23;;;3.83;;
14381;SDS011;7275;50.328;8.720;2022-12-18T01:15:36;6.20;;;4.03;;
14381;SDS011;7275;50.328;8.720;2022-12-18T01:18:03;5.27;;;3.67;;
14381;SDS011;7275;50.328;8.720;2022-12-18T01:20:31;5.70;;;3.80;;
14381;SDS011;7275;50.328;8.720;2022-12-18T01:22:58;6.57;;;3.90;;
14381;SDS011;7275;50.328;8.720;2022-12-18T01:25:26;5.57;;;4.00;;
14381;SDS011;7275;50.328;8.720;2022-12-18T01:27:53;5.73;;;3.80;;
14381;SDS011;7275;50.328;8.720;2022-12-18T01:30:22;6.53;;;4.20;;
14381;SDS011;7275;50.328;8.720;2022-12-18T01:32:49;5.27;;;3.87;;
14381;SDS011;7275;50.328;8.720;2022-12-18T01:35:17;6.43;;;3.90;;
14381;SDS011;7275;50.328;8.720;2022-12-18T01:37:44;5.47;;;3.80;;
14381;SDS011;7275;50.328;8.720;2022-12-18T01:40:12;6.40;;;4.17;;
14381;SDS011;7275;50.328;8.720;2022-12-18T01:42:39;6.20;;;4.00;;
14381;SDS011;7275;50.328;8.720;2022-12-18T01:47:54;4.50;;;3.47;;
14381;SDS011;7275;50.328;8.720;2022-12-18T01:50:23;5.37;;;3.80;;
14381;SDS011;7275;50.328;8.720;2022-12-18T01:52:56;5.60;;;3.40;;
14381;SDS011;7275;50.328;8.720;2022-12-18T01:55:28;5.07;;;3.40;;
14381;SDS011;7275;50.328;8.720;2022-12-18T01:57:58;5.07;;;3.23;;
14381;SDS011;7275;50.328;8.720;2022-12-18T02:00:28;7.30;;;3.93;;
14381;SDS011;7275;50.328;8.720;2022-12-18T02:02:56;5.03;;;3.27;;
14381;SDS011;7275;50.328;8.720;2022-12-18T02:05:26;4.53;;;3.17;;
14381;SDS011;7275;50.328;8.720;2022-12-18T02:08:07;4.00;;;3.17;;
14381;SDS011;7275;50.328;8.720;2022-12-18T02:10:39;7.43;;;3.70;;
14381;SDS011;7275;50.328;8.720;2022-12-18T02:13:14;5.00;;;3.23;;
14381;SDS011;7275;50.328;8.720;2022-12-18T02:15:51;5.03;;;3.23;;
14381;SDS011;7275;50.328;8.720;2022-12-18T02:18:26;4.70;;;3.20;;
14381;SDS011;7275;50.328;8.720;2022-12-18T02:21:00;3.97;;;3.00;;
14381;SDS011;7275;50.328;8.720;2022-12-18T02:23:41;5.20;;;3.37;;
14381;SDS011;7275;50.328;8.720;2022-12-18T02:26:18;5.60;;;3.27;;
14381;SDS011;7275;50.328;8.720;2022-12-18T02:28:49;4.13;;;3.07;;
14381;SDS011;7275;50.328;8.720;2022-12-18T02:31:21;4.00;;;2.80;;
14381;SDS011;7275;50.328;8.720;2022-12-18T02:33:52;5.13;;;3.17;;
14381;SDS011;7275;50.328;8.720;2022-12-18T02:36:23;5.07;;;3.30;;
14381;SDS011;7275;50.328;8.720;2022-12-18T02:38:54;4.77;;;3.23;;
14381;SDS011;7275;50.328;8.720;2022-12-18T02:41:24;5.30;;;3.63;;
14381;SDS011;7275;50.328;8.720;2022-12-18T02:43:53;5.37;;;3.27;;
14381;SDS011;7275;50.328;8.720;2022-12-18T02:46:25;5.27;;;3.40;;
14381;SDS011;7275;50.328;8.720;2022-12-18T02:49:02;4.67;;;3.10;;
14381;SDS011;7275;50.328;8.720;2022-12-18T02:51:50;3.80;;;2.57;;
14381;SDS011;7275;50.328;8.720;2022-12-18T02:54:26;4.30;;;3.23;;
14381;SDS011;7275;50.328;8.720;2022-12-18T02:57:05;4.40;;;3.00;;
14381;SDS011;7275;50.328;8.720;2022-12-18T02:59:42;5.07;;;3.60;;
14381;SDS011;7275;50.328;8.720;2022-12-18T03:02:18;4.50;;;3.10;;
14381;SDS011;7275;50.328;8.720;2022-12-18T03:04:52;5.90;;;3.40;;
14381;SDS011;7275;50.328;8.720;2022-12-18T03:07:28;4.73;;;3.23;;
14381;SDS011;7275;50.328;8.720;2022-12-18T03:10:02;5.50;;;3.37;;
14381;SDS011;7275;50.328;8.720;2022-12-18T03:12:34;5.00;;;3.33;;
14381;SDS011;7275;50.328;8.720;2022-12-18T03:15:06;6.47;;;3.80;;
14381;SDS011;7275;50.328;8.720;2022-12-18T03:17:46;4.73;;;3.33;;
14381;SDS011;7275;50.328;8.720;2022-12-18T03:20:17;5.23;;;3.27;;
14381;SDS011;7275;50.328;8.720;2022-12-18T03:22:49;5.47;;;3.43;;
14381;SDS011;7275;50.328;8.720;2022-12-18T03:25:20;5.97;;;3.47;;
14381;SDS011;7275;50.328;8.720;2022-12-18T03:27:51;6.67;;;3.63;;
14381;SDS011;7275;50.328;8.720;2022-12-18T03:30:24;4.83;;;3.47;;
14381;SDS011;7275;50.328;8.720;2022-12-18T03:32:56;5.67;;;3.73;;
14381;SDS011;7275;50.328;8.720;2022-12-18T03:35:30;4.97;;;3.23;;
14381;SDS011;7275;50.328;8.720;2022-12-18T03:38:00;6.63;;;3.90;;
14381;SDS011;7275;50.328;8.720;2022-12-18T03:40:29;5.07;;;3.30;;
14381;SDS011;7275;50.328;8.720;2022-12-18T03:43:08;4.60;;;3.17;;
14381;SDS011;7275;50.328;8.720;2022-12-18T03:45:45;5.60;;;3.40;;
14381;SDS011;7275;50.328;8.720;2022-12-18T03:48:20;7.13;;;3.43;;
14381;SDS011;7275;50.328;8.720;2022-12-18T03:50:56;6.00;;;3.73;;
14381;SDS011;7275;50.328;8.720;2022-12-18T03:53:28;4.97;;;3.43;;
14381;SDS011;7275;50.328;8.720;2022-12-18T03:56:02;4.30;;;3.17;;
14381;SDS011;7275;50.328;8.720;2022-12-18T03:58:33;5.03;;;3.30;;
14381;SDS011;7275;50.328;8.720;2022-12-18T04:01:05;7.00;;;4.13;;
14381;SDS011;7275;50.328;8.720;2022-12-18T04:03:35;6.33;;;3.93;;
14381;SDS011;7275;50.328;8.720;2022-12-18T04:06:05;6.97;;;4.03;;
14381;SDS011;7275;50.328;8.720;2022-12-18T04:08:34;7.27;;;4.27;;
14381;SDS011;7275;50.328;8.720;2022-12-18T04:11:02;6.60;;;4.13;;
14381;SDS011;7275;50.328;8.720;2022-12-18T04:13:33;7.87;;;4.03;;
14381;SDS011;7275;50.328;8.720;2022-12-18T04:16:03;5.30;;;3.60;;
14381;SDS011;7275;50.328;8.720;2022-12-18T04:18:31;6.43;;;4.10;;
14381;SDS011;7275;50.328;8.720;2022-12-18T04:20:59;4.93;;;3.33;;
14381;SDS011;7275;50.328;8.720;2022-12-18T04:23:26;6.13;;;4.07;;
14381;SDS011;7275;50.328;8.720;2022-12-18T04:25:54;6.33;;;3.73;;
14381;SDS011;7275;50.328;8.720;2022-12-18T04:28:21;6.20;;;4.07;;
14381;SDS011;7275;50.328;8.720;2022-12-18T04:30:50;7.40;;;4.33;;
14381;SDS011;7275;50.328;8.720;2022-12-18T04:33:18;5.30;;;3.73;;
14381;SDS011;7275;50.328;8.720;2022-12-18T04:35:46;6.47;;;4.17;;
14381;SDS011;7275;50.328;8.720;2022-12-18T04:38:13;6.23;;;4.07;;
14381;SDS011;7275;50.328;8.720;2022-12-18T04:40:41;7.03;;;4.27;;
14381;SDS011;7275;50.328;8.720;2022-12-18T04:43:08;6.27;;;4.10;;
14381;SDS011;7275;50.328;8.720;2022-12-18T04:45:37;8.47;;;4.40;;
14381;SDS011;7275;50.328;8.720;2022-12-18T04:48:07;7.53;;;4.47;;
14381;SDS011;7275;50.328;8.720;2022-12-18T04:50:35;5.97;;;4.00;;
14381;SDS011;7275;50.328;8.720;2022-12-18T04:53:03;6.77;;;4.27;;
14381;SDS011;7275;50.328;8.720;2022-12-18T04:55:30;6.77;;;4.20;;
14381;SDS011;7275;50.328;8.720;2022-12-18T04:57:58;7.20;;;4.50;;
14381;SDS011;7275;50.328;8.720;2022-12-18T05:00:25;7.17;;;4.10;;
14381;SDS011;7275;50.328;8.720;2022-12-18T05:02:53;5.70;;;3.57;;
14381;SDS011;7275;50.328;8.720;2022-12-18T05:05:22;6.37;;;3.67;;
14381;SDS011;7275;50.328;8.720;2022-12-18T05:07:50;5.87;;;3.50;;
14381;SDS011;7275;50.328;8.720;2022-12-18T05:10:17;6.33;;;4.10;;
14381;SDS011;7275;50.328;8.720;2022-12-18T05:12:45;5.43;;;3.80;;
14381;SDS011;7275;50.328;8.720;2022-12-18T05:15:27;5.80;;;3.77;;
14381;SDS011;7275;50.328;8.720;2022-12-18T05:17:55;5.10;;;3.63;;
14381;SDS011;7275;50.328;8.720;2022-12-18T05:20:25;5.70;;;3.60;;
14381;SDS011;7275;50.328;8.720;2022-12-18T05:22:53;5.67;;;3.50;;
14381;SDS011;7275;50.328;8.720;2022-12-18T05:25:21;5.93;;;3.13;;
14381;SDS011;7275;50.328;8.720;2022-12-18T05:27:49;5.77;;;3.67;;
14381;SDS011;7275;50.328;8.720;2022-12-18T05:30:17;6.33;;;3.87;;
14381;SDS011;7275;50.328;8.720;2022-12-18T05:32:44;4.47;;;2.90;;
14381;SDS011;7275;50.328;8.720;2022-12-18T05:35:12;5.37;;;3.60;;
14381;SDS011;7275;50.328;8.720;2022-12-18T05:37:41;5.23;;;3.17;;
14381;SDS011;7275;50.328;8.720;2022-12-18T05:40:09;4.93;;;3.17;;
14381;SDS011;7275;50.328;8.720;2022-12-18T05:42:37;5.73;;;3.37;;
14381;SDS011;7275;50.328;8.720;2022-12-18T05:45:05;5.50;;;3.23;;
14381;SDS011;7275;50.328;8.720;2022-12-18T05:47:33;6.30;;;3.40;;
14381;SDS011;7275;50.328;8.720;2022-12-18T05:50:01;5.80;;;3.60;;
14381;SDS011;7275;50.328;8.720;2022-12-18T05:52:28;5.67;;;3.63;;
14381;SDS011;7275;50.328;8.720;2022-12-18T05:54:58;4.60;;;2.97;;
14381;SDS011;7275;50.328;8.720;2022-12-18T05:57:26;5.63;;;3.10;;
14381;SDS011;7275;50.328;8.720;2022-12-18T05:59:53;5.30;;;3.23;;
14381;SDS011;7275;50.328;8.720;2022-12-18T06:02:21;5.67;;;3.13;;
14381;SDS011;7275;50.328;8.720;2022-12-18T06:04:48;5.83;;;3.50;;
14381;SDS011;7275;50.328;8.720;2022-12-18T06:07:16;5.57;;;3.33;;
14381;SDS011;7275;50.328;8.720;2022-12-18T06:09:44;4.83;;;3.27;;
14381;SDS011;7275;50.328;8.720;2022-12-18T06:12:12;6.00;;;3.90;;
14381;SDS011;7275;50.328;8.720;2022-12-18T06:14:40;5.97;;;3.63;;
14381;SDS011;7275;50.328;8.720;2022-12-18T06:17:07;5.83;;;3.63;;
14381;SDS011;7275;50.328;8.720;2022-12-18T06:19:35;5.40;;;3.60;;
14381;SDS011;7275;50.328;8.720;2022-12-18T06:22:03;5.80;;;3.47;;
14381;SDS011;7275;50.328;8.720;2022-12-18T06:24:30;7.30;;;4.30;;
14381;SDS011;7275;50.328;8.720;2022-12-18T06:26:59;6.10;;;3.90;;
14381;SDS011;7275;50.328;8.720;2022-12-18T06:29:27;6.23;;;4.10;;
14381;SDS011;7275;50.328;8.720;2022-12-18T06:31:55;6.10;;;3.60;;
14381;SDS011;7275;50.328;8.720;2022-12-18T06:34:23;5.67;;;3.43;;
14381;SDS011;7275;50.328;8.720;2022-12-18T06:36:50;5.13;;;3.53;;
14381;SDS011;7275;50.328;8.720;2022-12-18T06:39:17;6.43;;;3.77;;
14381;SDS011;7275;50.328;8.720;2022-12-18T06:41:45;5.80;;;3.43;;
14381;SDS011;7275;50.328;8.720;2022-12-18T06:44:13;5.67;;;3.67;;
14381;SDS011;7275;50.328;8.720;2022-12-18T06:46:41;6.40;;;3.47;;
14381;SDS011;7275;50.328;8.720;2022-12-18T06:49:09;5.80;;;3.90;;
14381;SDS011;7275;50.328;8.720;2022-12-18T06:51:36;6.27;;;3.97;;
14381;SDS011;7275;50.328;8.720;2022-12-18T06:54:04;6.53;;;4.23;;
14381;SDS011;7275;50.328;8.720;2022-12-18T06:56:31;6.43;;;3.97;;
14381;SDS011;7275;50.328;8.720;2022-12-18T06:58:59;7.00;;;4.10;;
14381;SDS011;7275;50.328;8.720;2022-12-18T07:01:26;6.63;;;3.97;;
14381;SDS011;7275;50.328;8.720;2022-12-18T07:03:56;6.57;;;4.17;;
14381;SDS011;7275;50.328;8.720;2022-12-18T07:06:25;7.03;;;4.30;;
14381;SDS011;7275;50.328;8.720;2022-12-18T07:08:53;6.50;;;4.03;;
14381;SDS011;7275;50.328;8.720;2022-12-18T07:11:21;7.10;;;4.03;;
14381;SDS011;7275;50.328;8.720;2022-12-18T07:13:49;8.00;;;4.43;;
14381;SDS011;7275;50.328;8.720;2022-12-18T07:16:17;5.93;;;4.10;;
14381;SDS011;7275;50.328;8.720;2022-12-18T07:18:50;7.90;;;4.43;;
14381;SDS011;7275;50.328;8.720;2022-12-18T07:21:19;7.33;;;4.50;;
14381;SDS011;7275;50.328;8.720;2022-12-18T07:23:48;6.33;;;4.20;;
14381;SDS011;7275;50.328;8.720;2022-12-18T07:26:16;6.80;;;4.13;;
14381;SDS011;7275;50.328;8.720;2022-12-18T07:28:44;5.83;;;3.67;;
14381;SDS011;7275;50.328;8.720;2022-12-18T07:31:13;7.30;;;4.53;;
14381;SDS011;7275;50.328;8.720;2022-12-18T07:33:44;7.70;;;4.60;;
14381;SDS011;7275;50.328;8.720;2022-12-18T07:36:12;7.10;;;4.27;;
14381;SDS011;7275;50.328;8.720;2022-12-18T07:38:42;6.07;;;3.93;;
14381;SDS011;7275;50.328;8.720;2022-12-18T07:41:10;7.97;;;4.43;;
14381;SDS011;7275;50.328;8.720;2022-12-18T07:43:39;6.70;;;3.80;;
14381;SDS011;7275;50.328;8.720;2022-12-18T07:46:08;6.20;;;4.07;;
14381;SDS011;7275;50.328;8.720;2022-12-18T07:48:38;8.13;;;4.67;;
14381;SDS011;7275;50.328;8.720;2022-12-18T07:51:06;6.60;;;4.47;;
14381;SDS011;7275;50.328;8.720;2022-12-18T07:53:35;8.17;;;4.77;;
14381;SDS011;7275;50.328;8.720;2022-12-18T07:56:06;6.77;;;4.57;;
14381;SDS011;7275;50.328;8.720;2022-12-18T07:58:54;7.27;;;4.60;;
14381;SDS011;7275;50.328;8.720;2022-12-18T08:01:22;9.70;;;5.83;;
14381;SDS011;7275;50.328;8.720;2022-12-18T08:03:50;8.50;;;5.77;;
14381;SDS011;7275;50.328;8.720;2022-12-18T08:06:18;8.87;;;6.10;;
14381;SDS011;7275;50.328;8.720;2022-12-18T08:08:50;9.50;;;6.27;;
14381;SDS011;7275;50.328;8.720;2022-12-18T08:11:19;12.40;;;7.80;;
14381;SDS011;7275;50.328;8.720;2022-12-18T08:13:47;11.67;;;8.33;;
14381;SDS011;7275;50.328;8.720;2022-12-18T08:16:15;12.07;;;8.67;;
14381;SDS011;7275;50.328;8.720;2022-12-18T08:18:43;13.30;;;8.90;;
14381;SDS011;7275;50.328;8.720;2022-12-18T08:21:10;13.17;;;9.67;;
14381;SDS011;7275;50.328;8.720;2022-12-18T08:23:39;11.57;;;8.90;;
14381;SDS011;7275;50.328;8.720;2022-12-18T08:26:09;14.82;;;11.27;;
14381;SDS011;7275;50.328;8.720;2022-12-18T08:28:38;17.15;;;14.18;;
14381;SDS011;7275;50.328;8.720;2022-12-18T08:31:07;16.87;;;12.57;;
14381;SDS011;7275;50.328;8.720;2022-12-18T08:33:35;23.43;;;16.23;;
14381;SDS011;7275;50.328;8.720;2022-12-18T08:36:07;25.80;;;17.73;;
14381;SDS011;7275;50.328;8.720;2022-12-18T08:38:36;17.47;;;12.53;;
14381;SDS011;7275;50.328;8.720;2022-12-18T08:41:04;14.33;;;10.63;;
14381;SDS011;7275;50.328;8.720;2022-12-18T08:43:33;15.70;;;10.60;;
14381;SDS011;7275;50.328;8.720;2022-12-18T08:46:20;12.53;;;9.57;;
14381;SDS011;7275;50.328;8.720;2022-12-18T08:48:50;14.70;;;9.50;;
14381;SDS011;7275;50.328;8.720;2022-12-18T08:51:18;12.80;;;9.37;;
14381;SDS011;7275;50.328;8.720;2022-12-18T08:53:46;13.67;;;9.77;;
14381;SDS011;7275;50.328;8.720;2022-12-18T08:56:14;13.43;;;9.27;;
14381;SDS011;7275;50.328;8.720;2022-12-18T08:58:42;13.20;;;9.27;;
14381;SDS011;7275;50.328;8.720;2022-12-18T09:01:10;13.37;;;10.20;;
14381;SDS011;7275;50.328;8.720;2022-12-18T09:03:41;14.47;;;10.60;;
14381;SDS011;7275;50.328;8.720;2022-12-18T09:06:12;14.27;;;10.30;;
14381;SDS011;7275;50.328;8.720;2022-12-18T09:08:40;13.97;;;10.83;;
14381;SDS011;7275;50.328;8.720;2022-12-18T09:11:11;12.17;;;9.73;;
14381;SDS011;7275;50.328;8.720;2022-12-18T09:13:40;13.23;;;10.57;;
14381;SDS011;7275;50.328;8.720;2022-12-18T09:16:08;12.73;;;10.30;;
14381;SDS011;7275;50.328;8.720;2022-12-18T09:18:36;13.93;;;10.53;;
14381;SDS011;7275;50.328;8.720;2022-12-18T09:21:09;13.00;;;9.83;;
14381;SDS011;7275;50.328;8.720;2022-12-18T09:23:37;11.57;;;9.23;;
14381;SDS011;7275;50.328;8.720;2022-12-18T09:26:04;11.23;;;9.37;;
14381;SDS011;7275;50.328;8.720;2022-12-18T09:28:32;11.40;;;9.40;;
14381;SDS011;7275;50.328;8.720;2022-12-18T09:31:03;11.17;;;9.13;;
14381;SDS011;7275;50.328;8.720;2022-12-18T09:33:33;11.43;;;8.73;;
14381;SDS011;7275;50.328;8.720;2022-12-18T09:36:02;11.67;;;8.63;;
14381;SDS011;7275;50.328;8.720;2022-12-18T09:38:32;10.07;;;8.83;;
14381;SDS011;7275;50.328;8.720;2022-12-18T09:41:02;10.90;;;8.90;;
14381;SDS011;7275;50.328;8.720;2022-12-18T09:43:34;10.73;;;8.80;;
14381;SDS011;7275;50.328;8.720;2022-12-18T09:46:09;11.53;;;9.20;;
14381;SDS011;7275;50.328;8.720;2022-12-18T09:48:44;10.93;;;8.93;;
14381;SDS011;7275;50.328;8.720;2022-12-18T09:51:15;11.30;;;9.20;;
14381;SDS011;7275;50.328;8.720;2022-12-18T09:53:50;10.53;;;9.13;;
14381;SDS011;7275;50.328;8.720;2022-12-18T09:56:22;10.57;;;9.47;;
14381;SDS011;7275;50.328;8.720;2022-12-18T09:58:54;12.97;;;10.10;;
14381;SDS011;7275;50.328;8.720;2022-12-18T10:01:26;11.37;;;9.20;;
14381;SDS011;7275;50.328;8.720;2022-12-18T10:04:08;11.30;;;9.40;;
14381;SDS011;7275;50.328;8.720;2022-12-18T10:06:37;11.23;;;9.20;;
14381;SDS011;7275;50.328;8.720;2022-12-18T10:09:12;12.27;;;9.60;;
14381;SDS011;7275;50.328;8.720;2022-12-18T10:11:49;10.97;;;8.67;;
14381;SDS011;7275;50.328;8.720;2022-12-18T10:14:26;11.07;;;9.00;;
14381;SDS011;7275;50.328;8.720;2022-12-18T10:17:02;13.37;;;10.57;;
14381;SDS011;7275;50.328;8.720;2022-12-18T10:19:43;12.23;;;10.27;;
14381;SDS011;7275;50.328;8.720;2022-12-18T10:22:19;12.07;;;10.10;;
14381;SDS011;7275;50.328;8.720;2022-12-18T10:24:57;13.47;;;10.53;;
14381;SDS011;7275;50.328;8.720;2022-12-18T10:27:32;13.07;;;10.47;;
14381;SDS011;7275;50.328;8.720;2022-12-18T10:29:59;15.07;;;11.43;;
14381;SDS011;7275;50.328;8.720;2022-12-18T10:32:32;15.23;;;11.83;;
14381;SDS011;7275;50.328;8.720;2022-12-18T10:35:00;13.73;;;10.80;;
14381;SDS011;7275;50.328;8.720;2022-12-18T10:37:28;15.03;;;11.40;;
14381;SDS011;7275;50.328;8.720;2022-12-18T10:40:09;14.77;;;11.67;;
14381;SDS011;7275;50.328;8.720;2022-12-18T10:42:47;16.20;;;12.37;;
14381;SDS011;7275;50.328;8.720;2022-12-18T10:45:30;14.90;;;11.93;;
14381;SDS011;7275;50.328;8.720;2022-12-18T10:47:58;17.93;;;13.43;;
14381;SDS011;7275;50.328;8.720;2022-12-18T10:50:26;18.00;;;14.27;;
14381;SDS011;7275;50.328;8.720;2022-12-18T10:53:18;19.70;;;15.13;;
14381;SDS011;7275;50.328;8.720;2022-12-18T10:55:49;18.93;;;14.30;;
14381;SDS011;7275;50.328;8.720;2022-12-18T10:58:22;18.70;;;14.80;;
14381;SDS011;7275;50.328;8.720;2022-12-18T11:01:06;22.03;;;15.43;;
14381;SDS011;7275;50.328;8.720;2022-12-18T11:03:36;24.27;;;16.83;;
14381;SDS011;7275;50.328;8.720;2022-12-18T11:06:06;21.87;;;15.90;;
14381;SDS011;7275;50.328;8.720;2022-12-18T11:08:36;22.93;;;16.63;;
14381;SDS011;7275;50.328;8.720;2022-12-18T11:11:14;23.30;;;16.20;;
14381;SDS011;7275;50.328;8.720;2022-12-18T11:13:49;23.40;;;16.00;;
14381;SDS011;7275;50.328;8.720;2022-12-18T11:16:23;23.30;;;15.83;;
14381;SDS011;7275;50.328;8.720;2022-12-18T11:18:51;25.07;;;16.57;;
14381;SDS011;7275;50.328;8.720;2022-12-18T11:21:19;23.47;;;16.47;;
14381;SDS011;7275;50.328;8.720;2022-12-18T11:23:47;23.47;;;15.37;;
14381;SDS011;7275;50.328;8.720;2022-12-18T11:26:19;23.73;;;16.57;;
14381;SDS011;7275;50.328;8.720;2022-12-18T11:28:49;23.97;;;16.73;;
14381;SDS011;7275;50.328;8.720;2022-12-18T11:31:23;24.97;;;16.10;;
14381;SDS011;7275;50.328;8.720;2022-12-18T11:33:58;23.30;;;16.83;;
14381;SDS011;7275;50.328;8.720;2022-12-18T11:36:48;25.67;;;17.10;;
14381;SDS011;7275;50.328;8.720;2022-12-18T11:39:17;24.57;;;17.43;;
14381;SDS011;7275;50.328;8.720;2022-12-18T11:41:52;27.10;;;18.03;;
14381;SDS011;7275;50.328;8.720;2022-12-18T11:44:41;26.10;;;18.13;;
14381;SDS011;7275;50.328;8.720;2022-12-18T11:47:13;24.03;;;16.70;;
14381;SDS011;7275;50.328;8.720;2022-12-18T11:49:49;27.00;;;18.30;;
14381;SDS011;7275;50.328;8.720;2022-12-18T11:52:18;26.13;;;17.00;;
14381;SDS011;7275;50.328;8.720;2022-12-18T11:54:50;26.07;;;17.53;;
14381;SDS011;7275;50.328;8.720;2022-12-18T11:57:23;24.43;;;16.77;;
14381;SDS011;7275;50.328;8.720;2022-12-18T12:00:02;26.97;;;18.13;;
14381;SDS011;7275;50.328;8.720;2022-12-18T12:02:41;28.67;;;18.30;;
14381;SDS011;7275;50.328;8.720;2022-12-18T12:05:22;24.43;;;16.87;;
14381;SDS011;7275;50.328;8.720;2022-12-18T12:08:06;29.00;;;17.83;;
14381;SDS011;7275;50.328;8.720;2022-12-18T12:10:45;26.37;;;17.27;;
14381;SDS011;7275;50.328;8.720;2022-12-18T12:13:29;25.77;;;17.07;;
14381;SDS011;7275;50.328;8.720;2022-12-18T12:16:10;26.33;;;17.87;;
14381;SDS011;7275;50.328;8.720;2022-12-18T12:18:47;23.47;;;15.63;;
14381;SDS011;7275;50.328;8.720;2022-12-18T12:21:32;25.63;;;17.13;;
14381;SDS011;7275;50.328;8.720;2022-12-18T12:24:10;29.53;;;18.87;;
14381;SDS011;7275;50.328;8.720;2022-12-18T12:26:50;30.00;;;18.87;;
14381;SDS011;7275;50.328;8.720;2022-12-18T12:29:32;26.83;;;18.07;;
14381;SDS011;7275;50.328;8.720;2022-12-18T12:32:13;25.93;;;17.23;;
14381;SDS011;7275;50.328;8.720;2022-12-18T12:34:53;27.83;;;17.73;;
14381;SDS011;7275;50.328;8.720;2022-12-18T12:37:36;28.90;;;18.00;;
14381;SDS011;7275;50.328;8.720;2022-12-18T12:40:11;26.30;;;17.47;;
14381;SDS011;7275;50.328;8.720;2022-12-18T12:43:10;26.23;;;17.40;;
14381;SDS011;7275;50.328;8.720;2022-12-18T12:45:51;29.67;;;17.77;;
14381;SDS011;7275;50.328;8.720;2022-12-18T12:48:26;29.50;;;18.57;;
14381;SDS011;7275;50.328;8.720;2022-12-18T12:51:00;28.07;;;18.13;;
14381;SDS011;7275;50.328;8.720;2022-12-18T12:53:32;28.70;;;18.60;;
14381;SDS011;7275;50.328;8.720;2022-12-18T12:56:05;30.77;;;18.53;;
14381;SDS011;7275;50.328;8.720;2022-12-18T12:58:36;29.43;;;17.70;;
14381;SDS011;7275;50.328;8.720;2022-12-18T13:01:15;30.60;;;17.97;;
14381;SDS011;7275;50.328;8.720;2022-12-18T13:03:53;27.23;;;17.53;;
14381;SDS011;7275;50.328;8.720;2022-12-18T13:06:32;31.37;;;18.20;;
14381;SDS011;7275;50.328;8.720;2022-12-18T13:09:10;28.20;;;17.37;;
14381;SDS011;7275;50.328;8.720;2022-12-18T13:11:38;27.23;;;16.97;;
14381;SDS011;7275;50.328;8.720;2022-12-18T13:14:27;27.57;;;17.60;;
14381;SDS011;7275;50.328;8.720;2022-12-18T13:20:02;29.50;;;18.40;;
14381;SDS011;7275;50.328;8.720;2022-12-18T13:22:34;28.60;;;17.83;;
14381;SDS011;7275;50.328;8.720;2022-12-18T13:25:04;27.97;;;17.30;;
14381;SDS011;7275;50.328;8.720;2022-12-18T13:28:00;27.90;;;17.50;;
14381;SDS011;7275;50.328;8.720;2022-12-18T13:36:36;25.57;;;16.33;;
14381;SDS011;7275;50.328;8.720;2022-12-18T13:45:41;27.53;;;16.70;;
14381;SDS011;7275;50.328;8.720;2022-12-18T13:48:20;28.47;;;17.10;;
14381;SDS011;7275;50.328;8.720;2022-12-18T13:50:55;29.37;;;17.77;;
14381;SDS011;7275;50.328;8.720;2022-12-18T13:53:26;29.50;;;17.50;;
14381;SDS011;7275;50.328;8.720;2022-12-18T13:55:57;26.33;;;16.67;;
14381;SDS011;7275;50.328;8.720;2022-12-18T13:58:25;26.53;;;16.50;;
14381;SDS011;7275;50.328;8.720;2022-12-18T14:00:53;28.47;;;16.80;;
14381;SDS011;7275;50.328;8.720;2022-12-18T14:03:22;28.00;;;16.90;;
14381;SDS011;7275;50.328;8.720;2022-12-18T14:05:54;27.07;;;16.13;;
14381;SDS011;7275;50.328;8.720;2022-12-18T14:08:27;27.73;;;16.77;;
14381;SDS011;7275;50.328;8.720;2022-12-18T14:11:00;27.60;;;16.53;;
14381;SDS011;7275;50.328;8.720;2022-12-18T14:13:30;26.20;;;15.77;;
14381;SDS011;7275;50.328;8.720;2022-12-18T14:16:00;29.10;;;17.37;;
14381;SDS011;7275;50.328;8.720;2022-12-18T14:18:31;23.10;;;14.83;;
14381;SDS011;7275;50.328;8.720;2022-12-18T14:21:15;24.17;;;14.93;;
14381;SDS011;7275;50.328;8.720;2022-12-18T14:23:46;24.20;;;14.57;;
14381;SDS011;7275;50.328;8.720;2022-12-18T14:26:21;25.37;;;16.23;;
14381;SDS011;7275;50.328;8.720;2022-12-18T14:28:51;25.80;;;15.27;;
14381;SDS011;7275;50.328;8.720;2022-12-18T14:31:20;26.47;;;16.10;;
14381;SDS011;7275;50.328;8.720;2022-12-18T14:33:48;25.97;;;15.00;;
14381;SDS011;7275;50.328;8.720;2022-12-18T14:36:18;25.37;;;15.80;;
14381;SDS011;7275;50.328;8.720;2022-12-18T14:38:50;27.10;;;16.83;;
14381;SDS011;7275;50.328;8.720;2022-12-18T14:41:20;27.53;;;16.30;;
14381;SDS011;7275;50.328;8.720;2022-12-18T14:43:49;23.10;;;14.37;;
14381;SDS011;7275;50.328;8.720;2022-12-18T14:46:32;24.03;;;14.70;;
14381;SDS011;7275;50.328;8.720;2022-12-18T14:49:03;24.73;;;15.27;;
14381;SDS011;7275;50.328;8.720;2022-12-18T14:51:34;23.13;;;14.10;;
14381;SDS011;7275;50.328;8.720;2022-12-18T14:54:03;24.03;;;14.87;;
14381;SDS011;7275;50.328;8.720;2022-12-18T14:56:34;24.73;;;15.53;;
14381;SDS011;7275;50.328;8.720;2022-12-18T14:59:03;25.73;;;15.67;;
14381;SDS011;7275;50.328;8.720;2022-12-18T15:01:33;23.83;;;15.33;;
14381;SDS011;7275;50.328;8.720;2022-12-18T15:04:03;24.33;;;15.17;;
14381;SDS011;7275;50.328;8.720;2022-12-18T15:06:34;23.93;;;15.10;;
14381;SDS011;7275;50.328;8.720;2022-12-18T15:09:04;25.70;;;15.27;;
14381;SDS011;7275;50.328;8.720;2022-12-18T15:11:47;23.23;;;14.67;;
14381;SDS011;7275;50.328;8.720;2022-12-18T15:14:23;23.63;;;14.63;;
14381;SDS011;7275;50.328;8.720;2022-12-18T15:16:57;23.70;;;15.20;;
14381;SDS011;7275;50.328;8.720;2022-12-18T15:19:32;24.77;;;15.83;;
14381;SDS011;7275;50.328;8.720;2022-12-18T15:22:04;25.33;;;14.80;;
14381;SDS011;7275;50.328;8.720;2022-12-18T15:24:32;24.77;;;15.77;;
14381;SDS011;7275;50.328;8.720;2022-12-18T15:27:00;25.57;;;14.73;;
14381;SDS011;7275;50.328;8.720;2022-12-18T15:29:28;23.30;;;14.37;;
14381;SDS011;7275;50.328;8.720;2022-12-18T15:31:59;24.17;;;14.80;;
14381;SDS011;7275;50.328;8.720;2022-12-18T15:34:29;22.47;;;14.77;;